Bay City, TX (77404)

9:59 AM CDT on August 28, 2016 (GMT -0500)
Oak Creek 2 | | Change Station

Elev 62 ft 29.04 °N, 95.89 °W | Updated 37 seconds ago

Light Rain
Light Rain
76.8 °F
Feels Like 77 °F
N
0.0
Wind Variable Wind from East
Gusts 0.0 mph

Today
High -- | Low -- °F
--% Chance of Precip.
Yesterday
High -- | Low -- °F
Precip. -- in
Pressure 29.99 in
Visibility 7.0 miles
Clouds Mostly Cloudy 600 ft
Overcast 1300 ft
Heat Index 77 °F
Dew Point 76 °F
Humidity 97%
Rainfall 0.02 in
Snow Depth Not available.
6:59 AM 7:49 PM
Waning Crescent, 15% visible
METAR KBYY 281455Z AUTO 06003KT 7SM -RA BKN006 OVC013 25/24 A2999 RMK AO2 P0002 T02470245
Pressure 29.99 in
Visibility 7.0 miles
Clouds Mostly Cloudy 600 ft
Overcast 1300 ft
Heat Index 77 °F
Dew Point 76 °F
Humidity 97%
Rainfall 0.02 in
Snow Depth Not available.
6:59 AM 7:49 PM
Waning Crescent, 15% visible
METAR KBYY 281455Z AUTO 06003KT 7SM -RA BKN006 OVC013 25/24 A2999 RMK AO2 P0002 T02470245

10-Day Weather Forecast

Almanac

Astronomy

Aug. 28, 2016 Rise Set
Actual Time
Civil Twilight
Nautical Twilight
Astronomical Twilight
Moon
Length of Visible Light
Length of Day
Tomorrow will be .
, % of the Moon is Illuminated

Today's Extremes

State Highs State Lows

Community

WunderPhotos

Upload Photos

1,935,579 photos uploaded!

WunderBlog® & News

Nearby

Air Quality

  Air Quality AQ Index Pollutant
Not available.

Snow Depth

Station Depth Elevation

Earthquake Activity

City Distance Mag. Time & Date
Minimum magnitude displayed is 2.5.

Coastal Water Temperatures

Place Temperature

Stations

Nearby Weather Stations

Station Location Temp. Windchill Dew Point Humidity Wind Precip. Elev Updated Type
                   

Watches & Warnings

There are currently no watches in effect.